sensor_id;sensor_type;location;lat;lon;timestamp;temperature;humidity
77052;SHT30;65980;44.898;8.602;2023-11-21T00:00:07;10.14;84.32
77052;SHT30;65980;44.898;8.602;2023-11-21T00:03:22;10.08;84.89
77052;SHT30;65980;44.898;8.602;2023-11-21T00:06:29;10.00;85.57
77052;SHT30;65980;44.898;8.602;2023-11-21T00:09:34;9.98;85.71
77052;SHT30;65980;44.898;8.602;2023-11-21T00:12:45;9.95;85.71
77052;SHT30;65980;44.898;8.602;2023-11-21T00:15:52;10.04;85.90
77052;SHT30;65980;44.898;8.602;2023-11-21T00:19:03;10.05;85.90
77052;SHT30;65980;44.898;8.602;2023-11-21T00:22:13;10.03;86.33
77052;SHT30;65980;44.898;8.602;2023-11-21T00:25:17;10.15;86.09
77052;SHT30;65980;44.898;8.602;2023-11-21T00:28:21;10.39;85.32
77052;SHT30;65980;44.898;8.602;2023-11-21T00:31:26;10.44;84.94
77052;SHT30;65980;44.898;8.602;2023-11-21T00:34:31;10.31;85.46
77052;SHT30;65980;44.898;8.602;2023-11-21T00:37:36;10.31;85.41
77052;SHT30;65980;44.898;8.602;2023-11-21T00:40:46;10.44;84.98
77052;SHT30;65980;44.898;8.602;2023-11-21T00:43:50;10.56;84.80
77052;SHT30;65980;44.898;8.602;2023-11-21T00:46:57;10.69;84.19
77052;SHT30;65980;44.898;8.602;2023-11-21T00:50:07;10.83;83.60
77052;SHT30;65980;44.898;8.602;2023-11-21T00:53:12;10.87;83.60
77052;SHT30;65980;44.898;8.602;2023-11-21T00:56:17;10.83;83.36
77052;SHT30;65980;44.898;8.602;2023-11-21T00:59:22;11.00;82.78
77052;SHT30;65980;44.898;8.602;2023-11-21T01:02:35;10.83;83.30
77052;SHT30;65980;44.898;8.602;2023-11-21T01:05:41;10.96;82.70
77052;SHT30;65980;44.898;8.602;2023-11-21T01:08:50;11.01;82.47
77052;SHT30;65980;44.898;8.602;2023-11-21T01:11:54;11.14;82.20
77052;SHT30;65980;44.898;8.602;2023-11-21T01:14:58;11.22;82.01
77052;SHT30;65980;44.898;8.602;2023-11-21T01:18:06;11.25;81.64
77052;SHT30;65980;44.898;8.602;2023-11-21T01:21:15;11.28;81.78
77052;SHT30;65980;44.898;8.602;2023-11-21T01:24:20;11.25;81.85
77052;SHT30;65980;44.898;8.602;2023-11-21T01:27:24;11.17;82.10
77052;SHT30;65980;44.898;8.602;2023-11-21T01:30:28;10.99;82.87
77052;SHT30;65980;44.898;8.602;2023-11-21T01:33:36;10.73;83.92
77052;SHT30;65980;44.898;8.602;2023-11-21T01:36:43;10.55;84.56
77052;SHT30;65980;44.898;8.602;2023-11-21T01:39:49;10.42;84.96
77052;SHT30;65980;44.898;8.602;2023-11-21T01:42:53;10.37;85.46
77052;SHT30;65980;44.898;8.602;2023-11-21T01:46:03;10.35;85.45
77052;SHT30;65980;44.898;8.602;2023-11-21T01:49:21;10.37;85.50
77052;SHT30;65980;44.898;8.602;2023-11-21T01:52:34;10.48;85.05
77052;SHT30;65980;44.898;8.602;2023-11-21T01:55:40;10.63;84.74
77052;SHT30;65980;44.898;8.602;2023-11-21T01:58:56;10.83;84.03
77052;SHT30;65980;44.898;8.602;2023-11-21T02:02:01;10.92;83.76
77052;SHT30;65980;44.898;8.602;2023-11-21T02:05:24;11.10;82.93
77052;SHT30;65980;44.898;8.602;2023-11-21T02:08:30;11.08;82.54
77052;SHT30;65980;44.898;8.602;2023-11-21T02:11:35;10.96;82.81
77052;SHT30;65980;44.898;8.602;2023-11-21T02:14:46;11.00;82.78
77052;SHT30;65980;44.898;8.602;2023-11-21T02:17:52;10.79;83.53
77052;SHT30;65980;44.898;8.602;2023-11-21T02:21:01;10.60;84.27
77052;SHT30;65980;44.898;8.602;2023-11-21T02:24:15;10.50;84.69
77052;SHT30;65980;44.898;8.602;2023-11-21T02:27:28;10.42;85.23
77052;SHT30;65980;44.898;8.602;2023-11-21T02:30:33;10.39;85.27
77052;SHT30;65980;44.898;8.602;2023-11-21T02:33:38;10.37;85.24
77052;SHT30;65980;44.898;8.602;2023-11-21T02:36:44;10.28;85.87
77052;SHT30;65980;44.898;8.602;2023-11-21T02:39:50;10.28;85.73
77052;SHT30;65980;44.898;8.602;2023-11-21T02:42:55;10.49;85.07
77052;SHT30;65980;44.898;8.602;2023-11-21T02:46:04;10.46;84.90
77052;SHT30;65980;44.898;8.602;2023-11-21T02:49:09;10.35;85.49
77052;SHT30;65980;44.898;8.602;2023-11-21T02:52:23;10.48;84.95
77052;SHT30;65980;44.898;8.602;2023-11-21T02:55:31;10.50;84.97
77052;SHT30;65980;44.898;8.602;2023-11-21T02:58:56;10.37;85.14
77052;SHT30;65980;44.898;8.602;2023-11-21T03:02:03;10.27;85.41
77052;SHT30;65980;44.898;8.602;2023-11-21T03:05:12;10.12;85.94
77052;SHT30;65980;44.898;8.602;2023-11-21T03:08:15;10.11;86.05
77052;SHT30;65980;44.898;8.602;2023-11-21T03:11:23;10.12;86.00
77052;SHT30;65980;44.898;8.602;2023-11-21T03:14:28;10.20;85.83
77052;SHT30;65980;44.898;8.602;2023-11-21T03:17:36;10.21;85.55
77052;SHT30;65980;44.898;8.602;2023-11-21T03:20:42;10.14;85.75
77052;SHT30;65980;44.898;8.602;2023-11-21T03:23:51;10.07;85.98
77052;SHT30;65980;44.898;8.602;2023-11-21T03:26:56;10.08;86.11
77052;SHT30;65980;44.898;8.602;2023-11-21T03:30:02;10.12;85.95
77052;SHT30;65980;44.898;8.602;2023-11-21T03:33:08;10.12;86.04
77052;SHT30;65980;44.898;8.602;2023-11-21T03:36:14;10.11;85.95
77052;SHT30;65980;44.898;8.602;2023-11-21T03:39:22;10.10;86.00
77052;SHT30;65980;44.898;8.602;2023-11-21T03:42:39;10.18;85.60
77052;SHT30;65980;44.898;8.602;2023-11-21T03:45:44;10.32;85.40
77052;SHT30;65980;44.898;8.602;2023-11-21T03:48:52;10.48;84.99
77052;SHT30;65980;44.898;8.602;2023-11-21T03:51:57;10.60;84.25
77052;SHT30;65980;44.898;8.602;2023-11-21T03:55:02;10.46;84.40
77052;SHT30;65980;44.898;8.602;2023-11-21T03:58:14;10.28;85.11
77052;SHT30;65980;44.898;8.602;2023-11-21T04:01:21;10.27;85.28
77052;SHT30;65980;44.898;8.602;2023-11-21T04:04:29;10.21;85.47
77052;SHT30;65980;44.898;8.602;2023-11-21T04:07:36;10.20;85.47
77052;SHT30;65980;44.898;8.602;2023-11-21T04:10:46;10.15;85.43
77052;SHT30;65980;44.898;8.602;2023-11-21T04:13:50;10.05;85.94
77052;SHT30;65980;44.898;8.602;2023-11-21T04:17:00;10.15;85.55
77052;SHT30;65980;44.898;8.602;2023-11-21T04:20:12;10.37;84.83
77052;SHT30;65980;44.898;8.602;2023-11-21T04:23:19;10.55;84.42
77052;SHT30;65980;44.898;8.602;2023-11-21T04:26:24;10.55;83.83
77052;SHT30;65980;44.898;8.602;2023-11-21T04:29:34;10.39;84.52
77052;SHT30;65980;44.898;8.602;2023-11-21T04:32:41;10.18;85.29
77052;SHT30;65980;44.898;8.602;2023-11-21T04:35:50;10.10;85.80
77052;SHT30;65980;44.898;8.602;2023-11-21T04:38:55;10.07;85.83
77052;SHT30;65980;44.898;8.602;2023-11-21T04:41:59;10.14;85.61
77052;SHT30;65980;44.898;8.602;2023-11-21T04:45:05;10.25;85.26
77052;SHT30;65980;44.898;8.602;2023-11-21T04:48:28;10.41;84.47
77052;SHT30;65980;44.898;8.602;2023-11-21T04:51:37;10.46;84.13
77052;SHT30;65980;44.898;8.602;2023-11-21T04:54:45;10.55;83.53
77052;SHT30;65980;44.898;8.602;2023-11-21T04:57:57;10.55;83.52
77052;SHT30;65980;44.898;8.602;2023-11-21T05:01:05;10.44;83.83
77052;SHT30;65980;44.898;8.602;2023-11-21T05:04:10;10.22;84.60
77052;SHT30;65980;44.898;8.602;2023-11-21T05:07:48;10.12;85.00
77052;SHT30;65980;44.898;8.602;2023-11-21T05:10:56;10.30;84.49
77052;SHT30;65980;44.898;8.602;2023-11-21T05:14:01;10.20;84.76
77052;SHT30;65980;44.898;8.602;2023-11-21T05:17:42;10.03;85.23
77052;SHT30;65980;44.898;8.602;2023-11-21T05:20:48;9.97;85.75
77052;SHT30;65980;44.898;8.602;2023-11-21T05:23:54;9.91;85.84
77052;SHT30;65980;44.898;8.602;2023-11-21T05:27:02;9.94;85.74
77052;SHT30;65980;44.898;8.602;2023-11-21T05:30:15;10.01;85.42
77052;SHT30;65980;44.898;8.602;2023-11-21T05:33:24;10.10;85.07
77052;SHT30;65980;44.898;8.602;2023-11-21T05:36:29;10.14;85.08
77052;SHT30;65980;44.898;8.602;2023-11-21T05:39:42;10.37;84.24
77052;SHT30;65980;44.898;8.602;2023-11-21T05:42:49;10.42;83.39
77052;SHT30;65980;44.898;8.602;2023-11-21T05:46:00;10.45;83.15
77052;SHT30;65980;44.898;8.602;2023-11-21T05:49:04;10.53;83.07
77052;SHT30;65980;44.898;8.602;2023-11-21T05:52:12;10.39;83.29
77052;SHT30;65980;44.898;8.602;2023-11-21T05:55:22;10.32;83.56
77052;SHT30;65980;44.898;8.602;2023-11-21T05:58:31;10.04;84.53
77052;SHT30;65980;44.898;8.602;2023-11-21T06:01:53;10.04;84.69
77052;SHT30;65980;44.898;8.602;2023-11-21T06:05:12;10.12;84.02
77052;SHT30;65980;44.898;8.602;2023-11-21T06:08:22;9.90;85.02
77052;SHT30;65980;44.898;8.602;2023-11-21T06:11:27;10.01;84.68
77052;SHT30;65980;44.898;8.602;2023-11-21T06:14:37;10.00;84.72
77052;SHT30;65980;44.898;8.602;2023-11-21T06:17:54;10.00;84.68
77052;SHT30;65980;44.898;8.602;2023-11-21T06:21:00;9.82;85.66
77052;SHT30;65980;44.898;8.602;2023-11-21T06:24:05;9.87;85.60
77052;SHT30;65980;44.898;8.602;2023-11-21T06:27:11;9.66;86.57
77052;SHT30;65980;44.898;8.602;2023-11-21T06:30:33;9.56;87.08
77052;SHT30;65980;44.898;8.602;2023-11-21T06:33:39;9.66;86.83
77052;SHT30;65980;44.898;8.602;2023-11-21T06:36:44;9.79;86.07
77052;SHT30;65980;44.898;8.602;2023-11-21T06:39:49;9.86;85.74
77052;SHT30;65980;44.898;8.602;2023-11-21T06:42:59;9.79;85.83
77052;SHT30;65980;44.898;8.602;2023-11-21T06:46:10;9.80;86.16
77052;SHT30;65980;44.898;8.602;2023-11-21T06:49:19;9.97;85.41
77052;SHT30;65980;44.898;8.602;2023-11-21T06:52:24;10.08;84.80
77052;SHT30;65980;44.898;8.602;2023-11-21T06:55:30;10.11;84.62
77052;SHT30;65980;44.898;8.602;2023-11-21T06:59:04;9.94;85.10
77052;SHT30;65980;44.898;8.602;2023-11-21T07:02:16;9.97;85.25
77052;SHT30;65980;44.898;8.602;2023-11-21T07:05:33;10.04;84.65
77052;SHT30;65980;44.898;8.602;2023-11-21T07:08:40;9.83;85.33
77052;SHT30;65980;44.898;8.602;2023-11-21T07:11:48;9.86;85.62
77052;SHT30;65980;44.898;8.602;2023-11-21T07:14:53;9.83;85.55
77052;SHT30;65980;44.898;8.602;2023-11-21T07:17:57;9.87;85.46
77052;SHT30;65980;44.898;8.602;2023-11-21T07:21:03;10.08;84.94
77052;SHT30;65980;44.898;8.602;2023-11-21T07:24:08;10.24;84.46
77052;SHT30;65980;44.898;8.602;2023-11-21T07:27:18;10.38;84.11
77052;SHT30;65980;44.898;8.602;2023-11-21T07:30:26;10.34;83.49
77052;SHT30;65980;44.898;8.602;2023-11-21T07:33:59;10.55;83.02
77052;SHT30;65980;44.898;8.602;2023-11-21T07:37:07;10.67;82.84
77052;SHT30;65980;44.898;8.602;2023-11-21T07:40:16;10.81;82.40
77052;SHT30;65980;44.898;8.602;2023-11-21T07:43:38;10.83;81.94
77052;SHT30;65980;44.898;8.602;2023-11-21T07:47:09;10.93;81.99
77052;SHT30;65980;44.898;8.602;2023-11-21T07:50:41;11.03;81.40
77052;SHT30;65980;44.898;8.602;2023-11-21T07:53:51;11.08;81.21
77052;SHT30;65980;44.898;8.602;2023-11-21T07:57:09;11.20;80.54
77052;SHT30;65980;44.898;8.602;2023-11-21T08:00:18;11.10;80.51
77052;SHT30;65980;44.898;8.602;2023-11-21T08:03:22;10.94;81.03
77052;SHT30;65980;44.898;8.602;2023-11-21T08:06:27;10.76;81.32
77052;SHT30;65980;44.898;8.602;2023-11-21T08:09:32;10.65;81.97
77052;SHT30;65980;44.898;8.602;2023-11-21T08:12:41;10.79;81.94
77052;SHT30;65980;44.898;8.602;2023-11-21T08:15:46;10.81;81.43
77052;SHT30;65980;44.898;8.602;2023-11-21T08:18:50;10.75;81.70
77052;SHT30;65980;44.898;8.602;2023-11-21T08:21:55;10.81;81.43
77052;SHT30;65980;44.898;8.602;2023-11-21T08:24:59;10.89;81.23
77052;SHT30;65980;44.898;8.602;2023-11-21T08:28:03;11.11;80.55
77052;SHT30;65980;44.898;8.602;2023-11-21T08:31:11;11.29;79.97
77052;SHT30;65980;44.898;8.602;2023-11-21T08:34:15;11.27;79.53
77052;SHT30;65980;44.898;8.602;2023-11-21T08:37:22;11.34;78.95
77052;SHT30;65980;44.898;8.602;2023-11-21T08:40:33;11.45;78.70
77052;SHT30;65980;44.898;8.602;2023-11-21T08:43:38;11.58;78.99
77052;SHT30;65980;44.898;8.602;2023-11-21T08:46:46;11.61;78.38
77052;SHT30;65980;44.898;8.602;2023-11-21T08:49:50;11.58;78.51
77052;SHT30;65980;44.898;8.602;2023-11-21T08:52:58;11.65;78.26
77052;SHT30;65980;44.898;8.602;2023-11-21T08:56:04;11.58;78.50
77052;SHT30;65980;44.898;8.602;2023-11-21T08:59:08;11.34;79.50
77052;SHT30;65980;44.898;8.602;2023-11-21T09:02:14;11.27;79.48
77052;SHT30;65980;44.898;8.602;2023-11-21T09:05:18;11.14;79.89
77052;SHT30;65980;44.898;8.602;2023-11-21T09:08:24;11.35;79.41
77052;SHT30;65980;44.898;8.602;2023-11-21T09:11:28;11.24;80.02
77052;SHT30;65980;44.898;8.602;2023-11-21T09:14:37;11.22;79.52
77052;SHT30;65980;44.898;8.602;2023-11-21T09:17:42;11.14;80.12
77052;SHT30;65980;44.898;8.602;2023-11-21T09:20:47;11.06;80.52
77052;SHT30;65980;44.898;8.602;2023-11-21T09:23:52;11.07;80.94
77052;SHT30;65980;44.898;8.602;2023-11-21T09:26:58;11.25;79.49
77052;SHT30;65980;44.898;8.602;2023-11-21T09:30:03;11.43;79.16
77052;SHT30;65980;44.898;8.602;2023-11-21T09:33:10;11.80;78.03
77052;SHT30;65980;44.898;8.602;2023-11-21T09:36:14;11.73;78.32
77052;SHT30;65980;44.898;8.602;2023-11-21T09:39:18;11.59;78.25
77052;SHT30;65980;44.898;8.602;2023-11-21T09:42:43;11.42;79.44
77052;SHT30;65980;44.898;8.602;2023-11-21T09:45:57;11.48;78.94
77052;SHT30;65980;44.898;8.602;2023-11-21T09:49:04;11.20;79.68
77052;SHT30;65980;44.898;8.602;2023-11-21T09:52:15;11.31;80.07
77052;SHT30;65980;44.898;8.602;2023-11-21T09:55:25;11.46;79.51
77052;SHT30;65980;44.898;8.602;2023-11-21T09:58:31;11.51;78.97
77052;SHT30;65980;44.898;8.602;2023-11-21T10:01:38;11.72;78.65
77052;SHT30;65980;44.898;8.602;2023-11-21T10:04:45;11.94;77.72
77052;SHT30;65980;44.898;8.602;2023-11-21T10:07:53;12.00;77.27
77052;SHT30;65980;44.898;8.602;2023-11-21T10:11:02;12.17;76.74
77052;SHT30;65980;44.898;8.602;2023-11-21T10:14:11;12.38;75.91
77052;SHT30;65980;44.898;8.602;2023-11-21T10:17:17;12.56;76.21
77052;SHT30;65980;44.898;8.602;2023-11-21T10:20:24;12.56;75.44
77052;SHT30;65980;44.898;8.602;2023-11-21T10:23:30;12.96;74.96
77052;SHT30;65980;44.898;8.602;2023-11-21T10:26:36;13.28;74.22
77052;SHT30;65980;44.898;8.602;2023-11-21T10:29:40;13.42;72.99
77052;SHT30;65980;44.898;8.602;2023-11-21T10:32:45;13.38;72.50
77052;SHT30;65980;44.898;8.602;2023-11-21T10:35:50;13.37;73.37
77052;SHT30;65980;44.898;8.602;2023-11-21T10:38:55;13.20;73.76
77052;SHT30;65980;44.898;8.602;2023-11-21T10:42:01;13.17;73.75
77052;SHT30;65980;44.898;8.602;2023-11-21T10:45:07;12.89;74.61
77052;SHT30;65980;44.898;8.602;2023-11-21T10:48:21;12.41;76.16
77052;SHT30;65980;44.898;8.602;2023-11-21T10:51:25;12.14;76.78
77052;SHT30;65980;44.898;8.602;2023-11-21T10:54:29;12.14;76.82
77052;SHT30;65980;44.898;8.602;2023-11-21T10:57:32;12.37;76.72
77052;SHT30;65980;44.898;8.602;2023-11-21T11:00:37;12.55;75.95
77052;SHT30;65980;44.898;8.602;2023-11-21T11:03:44;12.70;74.76
77052;SHT30;65980;44.898;8.602;2023-11-21T11:07:03;12.53;75.21
77052;SHT30;65980;44.898;8.602;2023-11-21T11:10:08;12.62;75.09
77052;SHT30;65980;44.898;8.602;2023-11-21T11:13:19;12.67;75.14
77052;SHT30;65980;44.898;8.602;2023-11-21T11:16:24;12.66;74.69
77052;SHT30;65980;44.898;8.602;2023-11-21T11:19:29;12.70;74.87
77052;SHT30;65980;44.898;8.602;2023-11-21T11:29:29;12.62;74.94
77052;SHT30;65980;44.898;8.602;2023-11-21T11:33:14;12.82;74.70
77052;SHT30;65980;44.898;8.602;2023-11-21T11:39:44;12.80;74.04
77052;SHT30;65980;44.898;8.602;2023-11-21T11:42:58;12.89;74.25
77052;SHT30;65980;44.898;8.602;2023-11-21T11:46:06;13.10;73.79
77052;SHT30;65980;44.898;8.602;2023-11-21T11:49:24;13.04;74.04
77052;SHT30;65980;44.898;8.602;2023-11-21T11:55:39;13.32;72.20
77052;SHT30;65980;44.898;8.602;2023-11-21T11:58:43;13.03;72.97
77052;SHT30;65980;44.898;8.602;2023-11-21T12:01:49;13.11;73.43
77052;SHT30;65980;44.898;8.602;2023-11-21T12:04:55;13.32;72.71
77052;SHT30;65980;44.898;8.602;2023-11-21T12:08:03;13.49;72.85
77052;SHT30;65980;44.898;8.602;2023-11-21T12:11:07;13.77;71.67
77052;SHT30;65980;44.898;8.602;2023-11-21T12:14:11;14.06;71.00
77052;SHT30;65980;44.898;8.602;2023-11-21T12:17:17;14.22;69.96
77052;SHT30;65980;44.898;8.602;2023-11-21T12:20:22;14.35;69.37
77052;SHT30;65980;44.898;8.602;2023-11-21T12:23:28;14.46;68.15
77052;SHT30;65980;44.898;8.602;2023-11-21T12:26:33;14.89;65.11
77052;SHT30;65980;44.898;8.602;2023-11-21T12:29:37;15.80;60.93
77052;SHT30;65980;44.898;8.602;2023-11-21T12:32:44;14.97;63.17
77052;SHT30;65980;44.898;8.602;2023-11-21T12:35:50;15.44;62.66
77052;SHT30;65980;44.898;8.602;2023-11-21T12:38:55;15.89;61.59
77052;SHT30;65980;44.898;8.602;2023-11-21T12:42:00;15.76;62.02
77052;SHT30;65980;44.898;8.602;2023-11-21T12:48:22;15.69;62.09
77052;SHT30;65980;44.898;8.602;2023-11-21T12:51:28;14.72;64.21
77052;SHT30;65980;44.898;8.602;2023-11-21T12:54:35;14.21;66.52
77052;SHT30;65980;44.898;8.602;2023-11-21T12:57:42;14.24;66.47
77052;SHT30;65980;44.898;8.602;2023-11-21T13:00:49;14.22;65.99
77052;SHT30;65980;44.898;8.602;2023-11-21T13:04:02;14.86;65.66
77052;SHT30;65980;44.898;8.602;2023-11-21T13:07:10;15.79;61.92
77052;SHT30;65980;44.898;8.602;2023-11-21T13:10:18;15.76;61.03
77052;SHT30;65980;44.898;8.602;2023-11-21T13:13:24;16.10;60.51
77052;SHT30;65980;44.898;8.602;2023-11-21T13:16:33;16.17;60.67
77052;SHT30;65980;44.898;8.602;2023-11-21T13:19:42;15.42;61.84
77052;SHT30;65980;44.898;8.602;2023-11-21T13:22:49;14.84;64.05
77052;SHT30;65980;44.898;8.602;2023-11-21T13:25:55;14.79;65.22
77052;SHT30;65980;44.898;8.602;2023-11-21T13:28:59;15.67;63.12
77052;SHT30;65980;44.898;8.602;2023-11-21T13:32:03;16.47;60.00
77052;SHT30;65980;44.898;8.602;2023-11-21T13:35:10;16.17;59.30
77052;SHT30;65980;44.898;8.602;2023-11-21T13:38:25;16.45;59.36
77052;SHT30;65980;44.898;8.602;2023-11-21T13:41:34;15.90;61.10
77052;SHT30;65980;44.898;8.602;2023-11-21T13:44:38;16.00;60.83
77052;SHT30;65980;44.898;8.602;2023-11-21T13:47:50;15.38;62.30
77052;SHT30;65980;44.898;8.602;2023-11-21T13:51:03;15.38;63.11
77052;SHT30;65980;44.898;8.602;2023-11-21T13:54:19;15.10;63.93
77052;SHT30;65980;44.898;8.602;2023-11-21T13:57:25;14.75;65.50
77052;SHT30;65980;44.898;8.602;2023-11-21T14:00:31;14.82;64.90
77052;SHT30;65980;44.898;8.602;2023-11-21T14:03:51;14.71;64.85
77052;SHT30;65980;44.898;8.602;2023-11-21T14:07:05;14.52;65.85
77052;SHT30;65980;44.898;8.602;2023-11-21T14:10:24;14.27;66.85
77052;SHT30;65980;44.898;8.602;2023-11-21T14:13:30;14.24;66.57
77052;SHT30;65980;44.898;8.602;2023-11-21T14:16:35;14.16;66.95
77052;SHT30;65980;44.898;8.602;2023-11-21T14:19:40;13.74;67.96
77052;SHT30;65980;44.898;8.602;2023-11-21T14:22:47;13.90;67.96
77052;SHT30;65980;44.898;8.602;2023-11-21T14:25:51;14.06;67.19
77052;SHT30;65980;44.898;8.602;2023-11-21T14:28:56;14.14;66.54
77052;SHT30;65980;44.898;8.602;2023-11-21T14:32:01;14.11;67.02
77052;SHT30;65980;44.898;8.602;2023-11-21T14:35:05;13.74;68.36
77052;SHT30;65980;44.898;8.602;2023-11-21T14:38:10;13.93;67.57
77052;SHT30;65980;44.898;8.602;2023-11-21T14:41:15;13.83;67.83
77052;SHT30;65980;44.898;8.602;2023-11-21T14:44:20;13.90;67.74
77052;SHT30;65980;44.898;8.602;2023-11-21T14:47:26;13.32;69.74
77052;SHT30;65980;44.898;8.602;2023-11-21T14:50:32;13.37;70.46
77052;SHT30;65980;44.898;8.602;2023-11-21T14:53:40;13.32;70.37
77052;SHT30;65980;44.898;8.602;2023-11-21T14:57:10;13.59;69.83
77052;SHT30;65980;44.898;8.602;2023-11-21T15:00:22;13.38;70.32
77052;SHT30;65980;44.898;8.602;2023-11-21T15:03:48;13.27;70.90
77052;SHT30;65980;44.898;8.602;2023-11-21T15:06:54;13.22;71.20
77052;SHT30;65980;44.898;8.602;2023-11-21T15:10:02;12.89;72.48
77052;SHT30;65980;44.898;8.602;2023-11-21T15:13:08;13.17;71.22
77052;SHT30;65980;44.898;8.602;2023-11-21T15:16:15;13.20;70.80
77052;SHT30;65980;44.898;8.602;2023-11-21T15:19:19;12.97;72.04
77052;SHT30;65980;44.898;8.602;2023-11-21T15:22:32;12.41;73.83
77052;SHT30;65980;44.898;8.602;2023-11-21T15:25:37;12.75;72.87
77052;SHT30;65980;44.898;8.602;2023-11-21T15:28:43;12.39;74.15
77052;SHT30;65980;44.898;8.602;2023-11-21T15:31:48;12.55;73.59
77052;SHT30;65980;44.898;8.602;2023-11-21T15:34:53;12.59;73.64
77052;SHT30;65980;44.898;8.602;2023-11-21T15:37:58;12.46;74.03
77052;SHT30;65980;44.898;8.602;2023-11-21T15:41:03;12.46;74.09
77052;SHT30;65980;44.898;8.602;2023-11-21T15:44:09;12.48;74.11
77052;SHT30;65980;44.898;8.602;2023-11-21T15:47:15;12.50;73.93
77052;SHT30;65980;44.898;8.602;2023-11-21T15:50:20;12.38;74.58
77052;SHT30;65980;44.898;8.602;2023-11-21T15:53:25;12.48;74.22
77052;SHT30;65980;44.898;8.602;2023-11-21T15:56:28;12.50;74.45
77052;SHT30;65980;44.898;8.602;2023-11-21T15:59:33;12.52;74.22
77052;SHT30;65980;44.898;8.602;2023-11-21T16:02:37;12.32;74.83
77052;SHT30;65980;44.898;8.602;2023-11-21T16:05:43;12.29;75.35
77052;SHT30;65980;44.898;8.602;2023-11-21T16:08:46;12.29;75.03
77052;SHT30;65980;44.898;8.602;2023-11-21T16:11:52;12.27;75.10
77052;SHT30;65980;44.898;8.602;2023-11-21T16:15:01;12.22;75.68
77052;SHT30;65980;44.898;8.602;2023-11-21T16:18:12;12.21;75.51
77052;SHT30;65980;44.898;8.602;2023-11-21T16:21:16;12.20;75.41
77052;SHT30;65980;44.898;8.602;2023-11-21T16:24:21;12.07;75.83
77052;SHT30;65980;44.898;8.602;2023-11-21T16:27:26;11.94;76.30
77052;SHT30;65980;44.898;8.602;2023-11-21T16:30:31;12.04;76.08
77052;SHT30;65980;44.898;8.602;2023-11-21T16:33:36;11.98;76.35
77052;SHT30;65980;44.898;8.602;2023-11-21T16:36:42;11.93;76.50
77052;SHT30;65980;44.898;8.602;2023-11-21T16:39:47;11.94;76.35
77052;SHT30;65980;44.898;8.602;2023-11-21T16:42:52;11.91;76.20
77052;SHT30;65980;44.898;8.602;2023-11-21T16:45:55;11.93;76.30
77052;SHT30;65980;44.898;8.602;2023-11-21T16:49:00;11.84;76.45
77052;SHT30;65980;44.898;8.602;2023-11-21T16:52:05;11.84;76.55
77052;SHT30;65980;44.898;8.602;2023-11-21T16:55:13;11.77;76.49
77052;SHT30;65980;44.898;8.602;2023-11-21T16:58:24;11.52;77.33
77052;SHT30;65980;44.898;8.602;2023-11-21T17:01:30;11.28;78.26
77052;SHT30;65980;44.898;8.602;2023-11-21T17:04:35;11.22;78.52
77052;SHT30;65980;44.898;8.602;2023-11-21T17:07:45;11.22;78.49
77052;SHT30;65980;44.898;8.602;2023-11-21T17:10:50;11.29;78.35
77052;SHT30;65980;44.898;8.602;2023-11-21T17:13:56;11.31;77.85
77052;SHT30;65980;44.898;8.602;2023-11-21T17:17:00;11.32;78.06
77052;SHT30;65980;44.898;8.602;2023-11-21T17:20:05;11.29;78.14
77052;SHT30;65980;44.898;8.602;2023-11-21T17:23:11;11.06;79.38
77052;SHT30;65980;44.898;8.602;2023-11-21T17:26:17;10.80;80.10
77052;SHT30;65980;44.898;8.602;2023-11-21T17:29:21;10.66;80.86
77052;SHT30;65980;44.898;8.602;2023-11-21T17:32:25;10.60;81.01
77052;SHT30;65980;44.898;8.602;2023-11-21T17:35:30;10.41;81.42
77052;SHT30;65980;44.898;8.602;2023-11-21T17:38:38;10.49;81.12
77052;SHT30;65980;44.898;8.602;2023-11-21T17:41:42;10.65;80.38
77052;SHT30;65980;44.898;8.602;2023-11-21T17:44:47;10.52;80.72
77052;SHT30;65980;44.898;8.602;2023-11-21T17:47:51;10.69;80.33
77052;SHT30;65980;44.898;8.602;2023-11-21T17:50:56;10.62;80.55
77052;SHT30;65980;44.898;8.602;2023-11-21T17:54:02;10.69;80.28
77052;SHT30;65980;44.898;8.602;2023-11-21T17:57:07;10.66;80.52
77052;SHT30;65980;44.898;8.602;2023-11-21T18:00:15;10.79;80.16
77052;SHT30;65980;44.898;8.602;2023-11-21T18:03:20;10.90;80.06
77052;SHT30;65980;44.898;8.602;2023-11-21T18:06:24;10.81;80.20
77052;SHT30;65980;44.898;8.602;2023-11-21T18:09:29;10.69;80.69
77052;SHT30;65980;44.898;8.602;2023-11-21T18:12:34;10.79;80.04
77052;SHT30;65980;44.898;8.602;2023-11-21T18:15:38;10.73;80.46
77052;SHT30;65980;44.898;8.602;2023-11-21T18:18:42;10.66;80.69
77052;SHT30;65980;44.898;8.602;2023-11-21T18:21:47;10.70;80.58
77052;SHT30;65980;44.898;8.602;2023-11-21T18:24:51;10.75;80.18
77052;SHT30;65980;44.898;8.602;2023-11-21T18:27:58;10.94;79.87
77052;SHT30;65980;44.898;8.602;2023-11-21T18:31:06;10.90;79.78
77052;SHT30;65980;44.898;8.602;2023-11-21T18:34:10;10.75;80.65
77052;SHT30;65980;44.898;8.602;2023-11-21T18:37:19;10.69;80.99
77052;SHT30;65980;44.898;8.602;2023-11-21T18:40:25;10.63;81.62
77052;SHT30;65980;44.898;8.602;2023-11-21T18:43:30;10.58;81.92
77052;SHT30;65980;44.898;8.602;2023-11-21T18:46:37;10.65;81.64
77052;SHT30;65980;44.898;8.602;2023-11-21T18:49:42;10.76;81.04
77052;SHT30;65980;44.898;8.602;2023-11-21T18:52:47;10.77;80.74
77052;SHT30;65980;44.898;8.602;2023-11-21T18:55:54;10.76;80.47
77052;SHT30;65980;44.898;8.602;2023-11-21T18:58:58;10.77;80.65
77052;SHT30;65980;44.898;8.602;2023-11-21T19:02:03;10.58;80.80
77052;SHT30;65980;44.898;8.602;2023-11-21T19:05:10;10.70;80.60
77052;SHT30;65980;44.898;8.602;2023-11-21T19:08:14;10.63;80.92
77052;SHT30;65980;44.898;8.602;2023-11-21T19:11:18;10.25;82.41
77052;SHT30;65980;44.898;8.602;2023-11-21T19:14:25;10.17;82.24
77052;SHT30;65980;44.898;8.602;2023-11-21T19:17:29;10.17;82.72
77052;SHT30;65980;44.898;8.602;2023-11-21T19:20:35;10.25;82.09
77052;SHT30;65980;44.898;8.602;2023-11-21T19:23:41;10.39;80.98
77052;SHT30;65980;44.898;8.602;2023-11-21T19:26:46;10.49;80.92
77052;SHT30;65980;44.898;8.602;2023-11-21T19:29:54;10.58;80.51
77052;SHT30;65980;44.898;8.602;2023-11-21T19:32:59;10.62;80.07
77052;SHT30;65980;44.898;8.602;2023-11-21T19:36:10;10.53;80.08
77052;SHT30;65980;44.898;8.602;2023-11-21T19:39:16;10.55;79.68
77052;SHT30;65980;44.898;8.602;2023-11-21T19:42:23;10.48;79.71
77052;SHT30;65980;44.898;8.602;2023-11-21T19:45:29;10.28;80.38
77052;SHT30;65980;44.898;8.602;2023-11-21T19:48:36;10.37;80.21
77052;SHT30;65980;44.898;8.602;2023-11-21T19:51:43;10.35;80.06
77052;SHT30;65980;44.898;8.602;2023-11-21T19:54:47;10.10;81.02
77052;SHT30;65980;44.898;8.602;2023-11-21T19:57:55;9.97;81.41
77052;SHT30;65980;44.898;8.602;2023-11-21T20:00:59;10.24;80.64
77052;SHT30;65980;44.898;8.602;2023-11-21T20:04:03;10.08;81.03